createdAt,value
2018-09-26T00:02:31.631Z,69.99
2018-09-26T00:04:59.667Z,70.26
2018-09-26T00:07:27.672Z,69.99
2018-09-26T00:09:55.699Z,70.23
2018-09-26T00:12:24.607Z,70.03
2018-09-26T00:14:52.620Z,70.20
2018-09-26T00:17:20.638Z,69.93
2018-09-26T00:19:48.639Z,70.20
2018-09-26T00:22:16.659Z,70.00
2018-09-26T00:24:45.108Z,69.72
2018-09-26T00:27:13.132Z,70.36
2018-09-26T00:29:41.140Z,70.02
2018-09-26T00:32:09.688Z,70.26
2018-09-26T00:34:37.701Z,70.39
2018-09-26T00:37:05.707Z,70.87
2018-09-26T00:39:33.879Z,70.90
2018-09-26T00:42:01.884Z,70.84
2018-09-26T00:44:29.885Z,70.76
2018-09-26T00:46:57.888Z,70.93
2018-09-26T00:49:25.972Z,71.29
2018-09-26T00:51:54.091Z,71.23
2018-09-26T00:54:22.255Z,71.47
2018-09-26T00:56:50.303Z,71.55
2018-09-26T00:59:18.352Z,71.36
2018-09-26T01:01:46.371Z,71.14
2018-09-26T01:04:14.376Z,71.17
2018-09-26T01:06:42.400Z,71.37
2018-09-26T01:09:11.687Z,71.14
2018-09-26T01:11:39.692Z,71.75
2018-09-26T01:14:07.784Z,71.32
2018-09-26T01:16:35.811Z,71.55
2018-09-26T01:19:04.848Z,71.19
2018-09-26T01:21:32.855Z,71.51
2018-09-26T01:24:01.012Z,71.92
2018-09-26T01:26:29.019Z,71.53
2018-09-26T01:28:57.037Z,71.33
2018-09-26T01:31:25.047Z,71.65
2018-09-26T01:33:53.059Z,71.74
2018-09-26T01:36:21.104Z,71.95
2018-09-26T01:38:49.268Z,71.94
2018-09-26T01:41:17.347Z,71.96
2018-09-26T01:43:45.295Z,72.15
2018-09-26T01:46:13.435Z,71.91
2018-09-26T01:48:41.447Z,72.63
2018-09-26T01:51:09.583Z,72.59
2018-09-26T01:53:37.940Z,72.14
2018-09-26T01:56:06.029Z,71.91
2018-09-26T01:58:34.100Z,71.65
2018-09-26T02:01:02.463Z,72.13
2018-09-26T02:03:31.369Z,71.80
2018-09-26T02:05:59.388Z,71.95
2018-09-26T02:08:27.599Z,71.97
2018-09-26T02:10:55.670Z,71.74
2018-09-26T02:13:30.387Z,72.16
2018-09-26T02:15:58.581Z,72.22
2018-09-26T02:18:26.643Z,72.30
2018-09-26T02:20:54.679Z,72.51
2018-09-26T02:23:23.251Z,72.32
2018-09-26T02:25:51.486Z,72.29
2018-09-26T02:28:19.617Z,71.99
2018-09-26T02:30:47.935Z,72.65
2018-09-26T02:33:15.953Z,72.40
2018-09-26T02:35:43.974Z,72.30
2018-09-26T02:38:12.115Z,71.87
2018-09-26T02:40:40.140Z,71.56
2018-09-26T02:43:08.161Z,71.93
2018-09-26T02:45:37.183Z,71.88
2018-09-26T02:48:05.344Z,71.59
2018-09-26T02:50:33.359Z,71.93
2018-09-26T02:53:01.364Z,71.56
2018-09-26T02:55:29.399Z,71.35
2018-09-26T02:57:57.599Z,71.59
2018-09-26T03:00:25.597Z,71.75
2018-09-26T03:02:53.748Z,71.61
2018-09-26T03:05:22.135Z,71.62
2018-09-26T03:07:50.201Z,71.26
2018-09-26T03:10:18.311Z,71.34
2018-09-26T03:12:46.359Z,71.47
2018-09-26T03:15:14.388Z,71.54
2018-09-26T03:17:42.573Z,71.64
2018-09-26T03:20:10.853Z,71.96
2018-09-26T03:22:38.863Z,71.73
2018-09-26T03:25:06.896Z,71.43
2018-09-26T03:27:34.913Z,71.81
2018-09-26T03:30:02.937Z,71.61
2018-09-26T03:32:31.211Z,71.69
2018-09-26T03:34:59.297Z,71.38
2018-09-26T03:37:27.351Z,71.65
2018-09-26T03:39:55.367Z,71.21
2018-09-26T03:42:23.803Z,71.72
2018-09-26T03:44:51.871Z,71.56
2018-09-26T03:47:19.967Z,71.37
2018-09-26T03:49:47.985Z,71.09
2018-09-26T03:52:16.318Z,70.86
2018-09-26T03:54:44.354Z,70.75
2018-09-26T03:57:12.374Z,70.78
2018-09-26T03:59:40.603Z,71.11
2018-09-26T04:02:08.675Z,70.76
2018-09-26T04:04:36.695Z,70.91
2018-09-26T04:07:05.768Z,71.07
2018-09-26T04:09:34.120Z,71.05
2018-09-26T04:12:02.191Z,70.87
2018-09-26T04:14:30.196Z,71.23
2018-09-26T04:16:58.584Z,70.89
2018-09-26T04:19:26.701Z,71.08
2018-09-26T04:21:54.717Z,71.21
2018-09-26T04:24:23.782Z,70.96
2018-09-26T04:26:52.302Z,71.05
2018-09-26T04:29:20.057Z,70.91
2018-09-26T04:31:48.944Z,71.17
2018-09-26T04:34:16.967Z,70.99
2018-09-26T04:36:44.995Z,70.65
2018-09-26T04:39:13.719Z,70.35
2018-09-26T04:41:41.979Z,70.12
2018-09-26T04:44:10.255Z,70.10
2018-09-26T04:46:38.284Z,70.29
2018-09-26T04:49:06.637Z,70.41
2018-09-26T04:51:35.273Z,70.19
2018-09-26T04:54:03.412Z,70.38
2018-09-26T04:56:31.623Z,70.10
2018-09-26T04:58:59.838Z,69.98
2018-09-26T05:01:27.899Z,70.26
2018-09-26T05:03:56.151Z,70.37
2018-09-26T05:06:24.167Z,70.15
2018-09-26T05:08:52.429Z,69.86
2018-09-26T05:11:20.491Z,69.91
2018-09-26T05:13:48.518Z,70.25
2018-09-26T05:16:16.533Z,69.97
2018-09-26T05:18:44.572Z,69.94
2018-09-26T05:21:12.803Z,69.84
2018-09-26T05:23:40.820Z,70.01
2018-09-26T05:26:08.823Z,70.18
2018-09-26T05:28:37.335Z,70.00
2018-09-26T05:31:05.370Z,70.22
2018-09-26T05:33:33.432Z,70.22
2018-09-26T05:36:01.448Z,69.77
2018-09-26T05:38:29.582Z,69.62
2018-09-26T05:40:57.612Z,70.09
2018-09-26T05:43:25.717Z,69.44
2018-09-26T05:45:53.736Z,69.75
2018-09-26T05:48:21.879Z,69.78
2018-09-26T05:50:49.938Z,69.75
2018-09-26T05:53:17.955Z,69.81
2018-09-26T05:55:45.987Z,69.59
2018-09-26T05:58:14.021Z,69.96
2018-09-26T06:00:42.044Z,69.63
2018-09-26T06:03:10.220Z,70.10
2018-09-26T06:05:38.236Z,69.78
2018-09-26T06:08:06.328Z,69.73
2018-09-26T06:10:34.787Z,69.89
2018-09-26T06:13:02.888Z,69.59
2018-09-26T06:15:30.839Z,69.34
2018-09-26T06:17:59.104Z,69.31
2018-09-26T06:20:27.123Z,69.17
2018-09-26T06:22:55.183Z,69.37
2018-09-26T06:25:23.246Z,69.16
2018-09-26T06:27:51.613Z,68.99
2018-09-26T06:30:19.643Z,69.50
2018-09-26T06:32:47.691Z,69.30
2018-09-26T06:35:15.820Z,69.39
2018-09-26T06:37:44.480Z,69.20
2018-09-26T06:40:12.580Z,68.81
2018-09-26T06:42:41.036Z,68.55
2018-09-26T06:45:09.531Z,68.60
2018-09-26T06:47:37.627Z,68.39
2018-09-26T06:50:05.591Z,68.53
2018-09-26T06:52:33.640Z,68.32
2018-09-26T06:55:01.644Z,68.49
2018-09-26T06:57:29.839Z,68.21
2018-09-26T06:59:58.095Z,68.21
2018-09-26T07:02:26.103Z,68.22
2018-09-26T07:04:54.124Z,68.06
2018-09-26T07:07:22.199Z,68.19
2018-09-26T07:09:50.208Z,67.86
2018-09-26T07:12:18.436Z,67.74
2018-09-26T07:14:46.467Z,68.23
2018-09-26T07:17:14.564Z,67.47
2018-09-26T07:19:42.599Z,66.64
2018-09-26T07:22:10.651Z,66.84
2018-09-26T07:24:38.660Z,67.35
2018-09-26T07:27:06.871Z,66.81
2018-09-26T07:29:34.927Z,67.06
2018-09-26T07:32:03.002Z,66.96
2018-09-26T07:34:38.520Z,66.64
2018-09-26T07:37:07.379Z,66.80
2018-09-26T07:39:36.280Z,65.99
2018-09-26T07:42:06.139Z,66.03
2018-09-26T07:44:34.191Z,65.57
2018-09-26T07:47:02.643Z,65.63
2018-09-26T07:49:30.692Z,65.02
2018-09-26T07:51:58.703Z,64.98
2018-09-26T07:54:26.747Z,65.05
2018-09-26T07:56:54.771Z,64.34
2018-09-26T07:59:23.125Z,63.61
2018-09-26T08:01:51.176Z,63.11
2018-09-26T08:04:19.191Z,63.29
2018-09-26T08:06:47.340Z,63.05
2018-09-26T08:09:15.435Z,62.22
2018-09-26T08:11:43.514Z,62.49
2018-09-26T08:14:11.520Z,62.40
2018-09-26T08:16:39.617Z,61.65
2018-09-26T08:19:07.675Z,61.40
2018-09-26T08:21:35.695Z,61.46
2018-09-26T08:24:03.916Z,61.20
2018-09-26T08:26:31.763Z,61.75
2018-09-26T08:28:59.779Z,60.16
2018-09-26T08:31:27.820Z,59.84
2018-09-26T08:33:55.839Z,59.20
2018-09-26T08:36:23.959Z,58.59
2018-09-26T08:38:52.053Z,58.66
2018-09-26T08:41:20.079Z,58.72
2018-09-26T08:43:48.111Z,58.33
2018-09-26T08:46:16.127Z,58.61
2018-09-26T08:48:44.772Z,58.21
2018-09-26T08:51:12.919Z,56.82
2018-09-26T08:53:40.959Z,57.42
2018-09-26T08:56:08.966Z,57.39
2018-09-26T08:58:36.983Z,57.72
2018-09-26T09:01:09.491Z,56.38
2018-09-26T09:03:37.503Z,56.52
2018-09-26T09:06:05.639Z,56.97
2018-09-26T09:08:34.008Z,55.39
2018-09-26T09:11:02.093Z,55.86
2018-09-26T09:13:30.149Z,55.46
2018-09-26T09:15:58.233Z,56.05
2018-09-26T09:18:26.300Z,55.77
2018-09-26T09:20:54.316Z,55.08
2018-09-26T09:23:22.450Z,55.00
2018-09-26T09:25:50.471Z,55.38
2018-09-26T09:28:18.491Z,54.63
2018-09-26T09:30:46.527Z,55.48
2018-09-26T09:33:14.562Z,54.90
2018-09-26T09:35:42.787Z,54.40
2018-09-26T09:38:10.873Z,54.34
2018-09-26T09:40:38.846Z,54.85
2018-09-26T09:43:07.295Z,54.39
2018-09-26T09:45:35.320Z,53.93
2018-09-26T09:48:03.352Z,53.83
2018-09-26T09:50:31.540Z,53.66
2018-09-26T09:52:59.579Z,53.67
2018-09-26T09:55:27.622Z,52.86
2018-09-26T09:57:55.911Z,52.65
2018-09-26T10:01:27.400Z,53.30
2018-09-26T10:03:56.705Z,53.82
2018-09-26T10:06:24.760Z,53.26
2018-09-26T10:08:53.920Z,53.42
2018-09-26T10:11:21.856Z,51.84
2018-09-26T10:13:49.904Z,53.13
2018-09-26T10:16:17.943Z,52.00
2018-09-26T10:18:46.220Z,51.64
2018-09-26T10:21:14.400Z,51.39
2018-09-26T10:23:42.422Z,51.99
2018-09-26T10:26:10.727Z,50.96
2018-09-26T10:28:38.744Z,50.54
2018-09-26T10:31:06.765Z,50.17
2018-09-26T10:33:34.788Z,50.54
2018-09-26T10:36:02.808Z,50.66
2018-09-26T10:38:30.820Z,49.04
2018-09-26T10:46:40.027Z,47.26
2018-09-26T10:49:08.390Z,48.06
2018-09-26T10:51:36.465Z,48.48
2018-09-26T10:54:04.963Z,45.84
2018-09-26T10:56:33.059Z,46.86
2018-09-26T10:59:01.547Z,46.95
2018-09-26T11:01:29.640Z,46.75
2018-09-26T11:03:57.668Z,46.16
2018-09-26T11:06:25.695Z,45.36
2018-09-26T11:08:53.710Z,46.51
2018-09-26T11:11:21.904Z,45.43
2018-09-26T11:13:49.943Z,45.95
2018-09-26T11:16:18.085Z,46.17
2018-09-26T11:18:46.136Z,44.88
2018-09-26T11:21:14.201Z,44.09
2018-09-26T11:23:42.212Z,44.33
2018-09-26T11:26:10.344Z,44.58
2018-09-26T11:28:38.273Z,43.34
2018-09-26T11:31:06.308Z,43.86
2018-09-26T11:33:34.586Z,43.56
2018-09-26T11:36:02.601Z,43.89
2018-09-26T11:38:30.612Z,44.66
2018-09-26T11:40:58.638Z,43.96
2018-09-26T11:43:26.660Z,43.27
2018-09-26T11:45:54.872Z,41.95
2018-09-26T11:48:23.074Z,43.39
2018-09-26T11:50:51.108Z,42.55
2018-09-26T11:53:19.154Z,41.76
2018-09-26T11:55:47.213Z,42.72
2018-09-26T11:58:16.293Z,42.75
2018-09-26T12:00:44.288Z,42.96
2018-09-26T12:03:13.201Z,42.86
2018-09-26T12:05:41.212Z,43.08
2018-09-26T12:08:09.289Z,42.02
2018-09-26T12:10:37.299Z,42.16
2018-09-26T12:13:05.336Z,43.12
2018-09-26T12:15:33.367Z,41.23
2018-09-26T12:18:01.400Z,42.03
2018-09-26T12:20:29.423Z,42.09
2018-09-26T12:22:57.448Z,41.06
2018-09-26T12:25:25.559Z,40.99
2018-09-26T12:27:53.711Z,40.29
2018-09-26T12:30:21.733Z,39.66
2018-09-26T12:32:50.060Z,40.67
2018-09-26T12:35:18.111Z,40.79
2018-09-26T12:37:46.128Z,40.51
2018-09-26T12:40:14.221Z,40.87
2018-09-26T12:42:42.277Z,40.91
2018-09-26T12:45:10.260Z,40.62
2018-09-26T12:47:38.287Z,39.68
2018-09-26T12:50:06.564Z,39.48
2018-09-26T12:52:34.608Z,38.96
2018-09-26T12:55:02.740Z,39.35
2018-09-26T12:57:30.763Z,39.87
2018-09-26T12:59:58.808Z,39.88
2018-09-26T13:02:26.937Z,39.29
2018-09-26T13:04:55.092Z,39.79
2018-09-26T13:07:23.152Z,38.80
2018-09-26T13:09:51.183Z,39.75
2018-09-26T13:12:19.270Z,38.06
2018-09-26T13:14:47.264Z,37.86
2018-09-26T13:17:15.293Z,38.84
2018-09-26T13:19:43.316Z,38.08
2018-09-26T13:22:12.010Z,37.87
2018-09-26T13:24:40.068Z,37.43
2018-09-26T13:27:08.117Z,38.87
2018-09-26T13:29:36.208Z,37.26
2018-09-26T13:32:04.994Z,37.09
2018-09-26T13:34:32.999Z,37.31
2018-09-26T13:37:01.174Z,38.27
2018-09-26T13:39:29.359Z,37.49
2018-09-26T13:41:57.368Z,37.34
2018-09-26T13:44:25.526Z,36.61
2018-09-26T13:46:53.617Z,37.17
2018-09-26T13:49:21.555Z,37.36
2018-09-26T13:51:49.580Z,37.22
2018-09-26T13:54:18.169Z,37.29
2018-09-26T13:56:46.164Z,37.35
2018-09-26T13:59:14.279Z,37.91
2018-09-26T14:01:42.792Z,37.03
2018-09-26T14:04:10.827Z,37.26
2018-09-26T14:06:38.846Z,36.21
2018-09-26T14:09:07.230Z,37.05
2018-09-26T14:11:35.272Z,36.54
2018-09-26T14:14:03.295Z,37.35
2018-09-26T14:16:31.548Z,37.82
2018-09-26T14:18:59.572Z,39.32
2018-09-26T14:21:27.636Z,38.53
2018-09-26T14:23:56.044Z,36.94
2018-09-26T14:26:24.177Z,38.48
2018-09-26T14:28:52.108Z,38.50
2018-09-26T14:31:20.755Z,38.00
2018-09-26T14:33:48.816Z,38.25
2018-09-26T14:36:16.923Z,38.20
2018-09-26T14:38:44.949Z,39.02
2018-09-26T14:41:12.960Z,38.50
2018-09-26T14:43:41.001Z,38.70
2018-09-26T14:46:09.144Z,38.73
2018-09-26T14:48:37.175Z,39.41
2018-09-26T14:51:05.553Z,38.46
2018-09-26T14:53:33.807Z,37.68
2018-09-26T14:56:01.841Z,38.57
2018-09-26T14:58:29.876Z,38.69
2018-09-26T15:00:57.884Z,39.52
2018-09-26T15:03:25.919Z,38.22
2018-09-26T15:05:54.139Z,38.42
2018-09-26T15:08:22.268Z,38.10
2018-09-26T15:10:50.224Z,38.55
2018-09-26T15:13:18.252Z,38.01
2018-09-26T15:15:46.286Z,38.01
2018-09-26T15:18:14.325Z,38.07
2018-09-26T15:20:42.632Z,38.96
2018-09-26T15:23:10.700Z,39.09
2018-09-26T15:25:38.728Z,38.34
2018-09-26T15:28:06.857Z,38.84
2018-09-26T15:30:34.831Z,38.98
2018-09-26T15:33:02.852Z,38.65
2018-09-26T15:35:30.956Z,38.50
2018-09-26T15:37:59.100Z,39.57
2018-09-26T15:40:27.187Z,39.21
2018-09-26T15:42:55.187Z,39.10
2018-09-26T15:45:23.209Z,39.94
2018-09-26T15:47:51.231Z,38.67
2018-09-26T15:50:19.501Z,39.11
2018-09-26T15:52:47.543Z,39.72
2018-09-26T15:55:15.613Z,40.40
2018-09-26T15:57:43.629Z,40.83
2018-09-26T16:00:11.671Z,40.18
2018-09-26T16:02:39.804Z,40.89
2018-09-26T16:05:18.625Z,40.16
2018-09-26T16:07:46.651Z,40.51
2018-09-26T16:10:14.792Z,41.15
2018-09-26T16:12:42.846Z,41.10
2018-09-26T16:15:10.872Z,40.84
2018-09-26T16:17:38.884Z,41.61
2018-09-26T16:20:07.083Z,40.82
2018-09-26T16:22:35.120Z,41.69
2018-09-26T16:25:03.323Z,41.69
2018-09-26T16:27:31.572Z,42.38
2018-09-26T16:29:59.601Z,42.40
2018-09-26T16:32:27.630Z,42.42
2018-09-26T16:34:55.660Z,42.00
2018-09-26T16:37:23.683Z,42.60
2018-09-26T16:39:51.721Z,43.08
2018-09-26T16:42:20.045Z,42.26
2018-09-26T16:44:48.053Z,42.35
2018-09-26T16:47:16.104Z,43.26
2018-09-26T16:49:44.107Z,42.57
2018-09-26T16:52:12.414Z,42.71
2018-09-26T16:54:40.656Z,42.76
2018-09-26T16:57:08.683Z,43.50
2018-09-26T16:59:36.799Z,43.76
2018-09-26T17:02:05.821Z,43.69
2018-09-26T17:04:33.853Z,43.35
2018-09-26T17:07:01.946Z,44.21
2018-09-26T17:09:30.288Z,43.20
2018-09-26T17:11:58.359Z,44.26
2018-09-26T17:14:26.446Z,44.16
2018-09-26T17:16:54.528Z,44.91
2018-09-26T17:19:22.796Z,44.03
2018-09-26T17:21:50.821Z,44.94
2018-09-26T17:24:18.896Z,44.98
2018-09-26T17:26:46.872Z,44.91
2018-09-26T17:29:14.920Z,44.76
2018-09-26T17:31:43.047Z,45.47
2018-09-26T17:34:11.211Z,45.26
2018-09-26T17:36:39.379Z,45.37
2018-09-26T17:39:08.109Z,45.75
2018-09-26T17:41:36.132Z,46.01
2018-09-26T17:44:04.762Z,46.76
2018-09-26T17:46:33.401Z,47.24
2018-09-26T17:49:01.424Z,46.95
2018-09-26T17:51:29.496Z,47.18
2018-09-26T17:53:57.629Z,48.25
2018-09-26T17:56:25.792Z,48.67
2018-09-26T17:58:54.344Z,48.30
2018-09-26T18:01:22.402Z,47.86
2018-09-26T18:03:50.588Z,47.66
2018-09-26T18:06:19.126Z,47.44
2018-09-26T18:08:47.162Z,47.83
2018-09-26T18:11:15.219Z,48.31
2018-09-26T18:13:43.244Z,48.15
2018-09-26T18:16:11.292Z,47.97
2018-09-26T18:18:39.329Z,48.50
2018-09-26T18:21:07.356Z,48.04
2018-09-26T18:23:35.400Z,48.44
2018-09-26T18:26:03.589Z,48.16
2018-09-26T18:28:31.779Z,47.94
2018-09-26T18:30:59.866Z,48.72
2018-09-26T18:33:27.898Z,48.39
2018-09-26T18:35:56.596Z,48.20
2018-09-26T18:38:24.620Z,48.65
2018-09-26T18:40:52.811Z,48.41
2018-09-26T18:43:20.866Z,48.76
2018-09-26T18:45:49.531Z,49.14
2018-09-26T18:48:17.702Z,48.98
2018-09-26T18:50:46.365Z,48.89
2018-09-26T18:53:14.471Z,49.71
2018-09-26T18:55:42.616Z,49.22
2018-09-26T18:58:10.631Z,49.94
2018-09-26T19:00:38.653Z,49.56
2018-09-26T19:03:06.884Z,49.21
2018-09-26T19:05:35.361Z,49.96
2018-09-26T19:08:03.385Z,50.47
2018-09-26T19:10:32.146Z,49.56
2018-09-26T19:13:00.166Z,49.61
2018-09-26T19:15:28.188Z,50.17
2018-09-26T19:17:56.232Z,51.15
2018-09-26T19:20:24.373Z,50.72
2018-09-26T19:22:52.404Z,50.75
2018-09-26T19:25:20.487Z,51.75
2018-09-26T19:27:48.507Z,51.45
2018-09-26T19:30:16.544Z,51.69
2018-09-26T19:32:44.599Z,51.88
2018-09-26T19:35:12.654Z,52.33
2018-09-26T19:37:40.672Z,52.00
2018-09-26T19:40:09.068Z,51.68
2018-09-26T19:42:37.136Z,52.75
2018-09-26T19:45:05.485Z,52.51
2018-09-26T19:47:33.475Z,53.06
2018-09-26T19:50:01.508Z,53.52
2018-09-26T19:52:29.592Z,52.29
2018-09-26T19:54:57.604Z,52.67
2018-09-26T19:57:25.624Z,53.14
2018-09-26T19:59:53.826Z,52.46
2018-09-26T20:02:21.853Z,52.59
2018-09-26T20:04:49.915Z,52.91
2018-09-26T20:07:18.023Z,52.77
2018-09-26T20:09:46.052Z,52.99
2018-09-26T20:12:14.088Z,52.74
2018-09-26T20:14:42.120Z,52.73
2018-09-26T20:17:10.266Z,53.20
2018-09-26T20:19:38.339Z,53.66
2018-09-26T20:22:07.286Z,53.83
2018-09-26T20:24:35.741Z,53.37
2018-09-26T20:27:04.697Z,53.82
2018-09-26T20:29:32.810Z,53.54
2018-09-26T20:32:00.897Z,53.54
2018-09-26T20:34:44.395Z,54.18
2018-09-26T20:37:12.541Z,53.96
2018-09-26T20:39:40.452Z,54.08
2018-09-26T20:42:08.501Z,53.99
2018-09-26T20:44:36.536Z,53.75
2018-09-26T20:47:07.290Z,54.56
2018-09-26T20:49:35.312Z,54.59
2018-09-26T20:52:03.468Z,54.56
2018-09-26T20:54:31.463Z,54.27
2018-09-26T20:56:59.786Z,54.26
2018-09-26T20:59:27.831Z,54.42
2018-09-26T21:01:55.872Z,54.40
2018-09-26T21:04:23.911Z,54.42
2018-09-26T21:06:52.091Z,54.68
2018-09-26T21:09:20.120Z,55.11
2018-09-26T21:11:48.231Z,54.80
2018-09-26T21:14:16.216Z,54.94
2018-09-26T21:16:44.249Z,55.40
2018-09-26T21:19:12.287Z,54.97
2018-09-26T21:21:40.480Z,54.80
2018-09-26T21:24:08.500Z,55.01
2018-09-26T21:26:36.523Z,55.80
2018-09-26T21:29:04.933Z,55.78
2018-09-26T21:31:33.601Z,55.92
2018-09-26T21:34:01.623Z,55.44
2018-09-26T21:36:29.664Z,55.05
2018-09-26T21:38:57.751Z,55.66
2018-09-26T21:41:25.722Z,55.40
2018-09-26T21:43:53.766Z,55.26
2018-09-26T21:46:21.797Z,55.60
2018-09-26T21:48:49.831Z,55.23
2018-09-26T21:51:17.849Z,55.88
2018-09-26T21:53:45.899Z,55.86
2018-09-26T21:56:13.920Z,56.15
2018-09-26T21:58:41.953Z,56.19
2018-09-26T22:01:16.190Z,55.94
2018-09-26T22:03:44.217Z,56.01
2018-09-26T22:06:13.431Z,55.82
2018-09-26T22:08:41.528Z,56.77
2018-09-26T22:11:09.720Z,56.04
2018-09-26T22:13:37.759Z,55.82
2018-09-26T22:16:05.788Z,55.93
2018-09-26T22:18:33.821Z,56.24
2018-09-26T22:21:01.856Z,56.47
2018-09-26T22:23:29.936Z,56.25
2018-09-26T22:25:58.066Z,56.04
2018-09-26T22:28:26.109Z,56.97
2018-09-26T22:30:54.143Z,56.18
2018-09-26T22:33:22.343Z,56.47
2018-09-26T22:35:50.372Z,56.74
2018-09-26T22:38:18.449Z,57.44
2018-09-26T22:40:46.581Z,57.43
2018-09-26T22:43:14.601Z,57.51
2018-09-26T22:48:17.080Z,57.36
2018-09-26T22:50:45.103Z,57.30
2018-09-26T22:53:13.129Z,57.38
2018-09-26T22:55:41.172Z,57.74
2018-09-26T22:58:09.286Z,57.20
2018-09-26T23:00:37.241Z,57.59
2018-09-26T23:03:05.312Z,57.41
2018-09-26T23:05:33.347Z,57.34
2018-09-26T23:08:01.392Z,57.27
2018-09-26T23:10:29.388Z,58.14
2018-09-26T23:12:58.040Z,58.19
2018-09-26T23:15:26.092Z,57.81
2018-09-26T23:17:54.126Z,57.27
2018-09-26T23:20:22.161Z,57.77
2018-09-26T23:22:50.191Z,58.24
2018-09-26T23:25:18.245Z,57.79
2018-09-26T23:27:47.149Z,57.37
2018-09-26T23:30:15.184Z,57.93
2018-09-26T23:32:43.234Z,57.81
2018-09-26T23:35:11.257Z,58.03
2018-09-26T23:37:39.296Z,57.85
2018-09-26T23:40:07.332Z,57.81
2018-09-26T23:42:35.364Z,58.32
2018-09-26T23:45:03.392Z,58.56
2018-09-26T23:47:31.420Z,57.89
2018-09-26T23:49:59.451Z,58.34
2018-09-26T23:52:27.479Z,57.70
2018-09-26T23:54:55.675Z,57.40
2018-09-26T23:57:23.720Z,58.50
2018-09-26T23:59:51.735Z,57.72
